Terminal Aerodrome Forecast
Issued by NWS

Home | Current Version | Previous Version | Text Only | Print | Product List | Glossary On
Versions: 1 2 3 4 5 6 7 8 9 10 11 12 13 14
000
FTUS41 KBOX 281139
TAFBAF
TAF
KBAF 281139Z 2812/2912 VRB03KT P6SM BKN070
     FM281400 20004KT P6SM SCT070
     FM281600 21005KT P6SM SCT050
     FM282100 23008KT P6SM SCT050
     FM290100 21004KT P6SM SCT050
     FM290400 00000KT P6SM SCT150
     FM290800 00000KT 3SM BR SCT110=

USA.gov is the U.S. government's official web portal to all federal, state and local government web resources and services.